createdAt,value
2023-03-03T00:00:11.475Z,1.1
2023-03-03T00:03:10.246Z,1.1
2023-03-03T00:06:09.904Z,1.1
2023-03-03T00:09:10.074Z,1.1
2023-03-03T00:12:09.926Z,1.1
2023-03-03T00:15:10.015Z,1.1
2023-03-03T00:18:09.980Z,1.1
2023-03-03T00:21:10.108Z,1.1
2023-03-03T00:24:09.933Z,1.1
2023-03-03T00:27:09.956Z,0.9
2023-03-03T00:30:10.028Z,1
2023-03-03T00:33:09.961Z,1
2023-03-03T00:36:10.029Z,1
2023-03-03T00:39:09.956Z,1
2023-03-03T00:42:09.990Z,1
2023-03-03T00:45:09.980Z,0.9
2023-03-03T00:48:10.002Z,0.9
2023-03-03T00:51:09.904Z,0.9
2023-03-03T00:54:10.054Z,0.9
2023-03-03T00:57:09.933Z,0.9
2023-03-03T01:00:09.980Z,0.9
2023-03-03T01:03:10.115Z,0.9
2023-03-03T01:06:09.985Z,0.9
2023-03-03T01:09:09.908Z,0.9
2023-03-03T01:12:09.944Z,0.9
2023-03-03T01:15:10.011Z,0.9
2023-03-03T01:18:09.979Z,0.9
2023-03-03T01:21:09.942Z,0.9
2023-03-03T01:24:09.986Z,0.9
2023-03-03T01:27:09.903Z,0.9
2023-03-03T01:30:10.011Z,0.9
2023-03-03T01:33:09.968Z,0.9
2023-03-03T01:36:10.175Z,0.9
2023-03-03T01:39:09.910Z,0.9
2023-03-03T01:42:09.951Z,0.9
2023-03-03T01:45:10.039Z,0.9
2023-03-03T01:48:09.971Z,0.9
2023-03-03T01:51:09.926Z,0.9
2023-03-03T01:54:10.024Z,0.9
2023-03-03T01:57:09.950Z,1
2023-03-03T02:00:09.995Z,0.9
2023-03-03T02:03:10.373Z,0.9
2023-03-03T02:06:09.958Z,0.9
2023-03-03T02:09:09.979Z,0.9
2023-03-03T02:12:10.029Z,0.9
2023-03-03T02:15:09.910Z,0.9
2023-03-03T02:18:10.042Z,1
2023-03-03T02:21:09.967Z,1
2023-03-03T02:24:09.969Z,1.1
2023-03-03T02:27:09.930Z,1.1
2023-03-03T02:30:09.983Z,1.1
2023-03-03T02:33:09.955Z,1.1
2023-03-03T02:36:10.033Z,1.1
2023-03-03T02:39:09.989Z,1.1
2023-03-03T02:42:09.945Z,1.1
2023-03-03T02:45:10.048Z,1.1
2023-03-03T02:48:09.975Z,1.1
2023-03-03T02:51:10.025Z,1.1
2023-03-03T02:54:10.180Z,1.1
2023-03-03T02:57:10.000Z,1.1
2023-03-03T03:00:09.957Z,1.1
2023-03-03T03:03:10.028Z,1.1
2023-03-03T03:06:10.026Z,1.1
2023-03-03T03:09:09.977Z,1.1
2023-03-03T03:12:10.039Z,1.1
2023-03-03T03:15:09.997Z,1.1
2023-03-03T03:18:10.198Z,1.1
2023-03-03T03:21:09.979Z,1.1
2023-03-03T03:24:09.990Z,1.1
2023-03-03T03:27:09.977Z,1.1
2023-03-03T03:30:09.949Z,1.1
2023-03-03T03:33:09.948Z,1.1
2023-03-03T03:36:09.975Z,1.1
2023-03-03T03:39:09.944Z,1.1
2023-03-03T03:42:09.981Z,1.2
2023-03-03T03:45:09.931Z,1.1
2023-03-03T03:48:09.925Z,1.1
2023-03-03T03:51:09.968Z,1.1
2023-03-03T03:54:09.899Z,1.1
2023-03-03T03:57:09.946Z,1.1
2023-03-03T04:00:10.524Z,1.1
2023-03-03T04:03:10.956Z,1.1
2023-03-03T04:06:09.972Z,1.1
2023-03-03T04:09:09.963Z,1.1
2023-03-03T04:12:09.914Z,1.1
2023-03-03T04:15:09.942Z,1.1
2023-03-03T04:18:09.981Z,1.1
2023-03-03T04:21:09.940Z,1.2
2023-03-03T04:24:09.957Z,1.1
2023-03-03T04:27:09.918Z,1.2
2023-03-03T04:30:09.956Z,1.2
2023-03-03T04:33:10.038Z,1.2
2023-03-03T04:36:09.961Z,1.2
2023-03-03T04:39:09.938Z,1.2
2023-03-03T04:42:09.923Z,1.2
2023-03-03T04:45:10.028Z,1.2
2023-03-03T04:48:09.973Z,1.2
2023-03-03T04:51:10.036Z,1.2
2023-03-03T04:54:09.974Z,1.2
2023-03-03T04:57:10.062Z,1.3
2023-03-03T05:00:10.035Z,1.3
2023-03-03T05:03:09.989Z,1.3
2023-03-03T05:06:09.938Z,1.3
2023-03-03T05:09:09.926Z,1.3
2023-03-03T05:12:09.967Z,1.4
2023-03-03T05:15:09.951Z,1.4
2023-03-03T05:18:09.914Z,1.4
2023-03-03T05:21:09.887Z,1.4
2023-03-03T05:24:09.964Z,1.4
2023-03-03T05:27:09.928Z,1.4
2023-03-03T05:30:09.965Z,1.4
2023-03-03T05:33:10.192Z,1.4
2023-03-03T05:36:09.910Z,1.4
2023-03-03T05:39:10.035Z,1.4
2023-03-03T05:42:09.893Z,1.5
2023-03-03T05:45:10.003Z,1.5
2023-03-03T05:48:09.914Z,1.5
2023-03-03T05:51:09.934Z,1.5
2023-03-03T05:54:09.915Z,1.5
2023-03-03T05:57:10.047Z,1.5
2023-03-03T06:00:09.945Z,1.6
2023-03-03T06:03:10.284Z,1.6
2023-03-03T06:06:10.133Z,1.6
2023-03-03T06:09:10.055Z,1.6
2023-03-03T06:12:09.989Z,1.6
2023-03-03T06:15:10.337Z,1.6
2023-03-03T06:18:10.046Z,1.6
2023-03-03T06:21:10.020Z,1.6
2023-03-03T06:24:10.103Z,1.6
2023-03-03T06:27:10.130Z,1.6
2023-03-03T06:30:10.278Z,1.6
2023-03-03T06:33:10.065Z,1.6
2023-03-03T06:36:14.483Z,1.6
2023-03-03T06:39:09.984Z,1.6
2023-03-03T06:42:10.020Z,1.6
2023-03-03T06:45:09.979Z,1.7
2023-03-03T06:48:10.102Z,1.7
2023-03-03T06:51:09.966Z,1.7
2023-03-03T06:54:10.093Z,1.7
2023-03-03T06:57:10.009Z,1.7
2023-03-03T07:00:10.278Z,1.7
2023-03-03T07:03:10.018Z,1.7
2023-03-03T07:06:12.848Z,1.7
2023-03-03T07:09:09.965Z,1.7
2023-03-03T07:12:10.492Z,1.7
2023-03-03T07:15:10.058Z,1.8
2023-03-03T07:18:10.020Z,1.8
2023-03-03T07:21:09.984Z,1.8
2023-03-03T07:24:10.036Z,1.9
2023-03-03T07:27:09.954Z,0
2023-03-03T07:30:10.147Z,0
2023-03-03T07:33:09.978Z,0.1
2023-03-03T07:36:10.022Z,0.1
2023-03-03T07:39:10.041Z,0.2
2023-03-03T07:42:10.162Z,0.3
2023-03-03T07:45:10.009Z,0.3
2023-03-03T07:48:09.956Z,0.4
2023-03-03T07:51:10.051Z,0.4
2023-03-03T07:54:10.219Z,0.4
2023-03-03T07:57:09.974Z,0.4
2023-03-03T08:00:10.804Z,0.3
2023-03-03T08:03:10.079Z,0.3
2023-03-03T08:06:10.071Z,0.5
2023-03-03T08:09:10.002Z,0.6
2023-03-03T08:12:10.192Z,0.4
2023-03-03T08:15:09.983Z,0.4
2023-03-03T08:18:10.034Z,0.4
2023-03-03T08:21:10.056Z,0.5
2023-03-03T08:24:10.078Z,0.6
2023-03-03T08:27:09.996Z,0.6
2023-03-03T08:30:10.125Z,0.7
2023-03-03T08:33:10.118Z,0.8
2023-03-03T08:36:10.668Z,0.8
2023-03-03T08:39:10.016Z,0.9
2023-03-03T08:42:10.102Z,0.9
2023-03-03T08:45:10.173Z,1
2023-03-03T08:48:12.636Z,1.1
2023-03-03T08:51:10.040Z,1.2
2023-03-03T08:54:10.048Z,1.2
2023-03-03T08:57:10.105Z,1.3
2023-03-03T09:00:10.016Z,1.3
2023-03-03T09:03:10.312Z,1.3
2023-03-03T09:06:10.078Z,1.3
2023-03-03T09:09:10.045Z,1.3
2023-03-03T09:12:10.020Z,1.3
2023-03-03T09:15:10.028Z,1.4
2023-03-03T09:18:10.127Z,1.4
2023-03-03T09:21:10.156Z,1.4
2023-03-03T09:24:10.028Z,1.6
2023-03-03T09:27:10.003Z,1.7
2023-03-03T09:30:10.195Z,1.7
2023-03-03T09:33:10.035Z,1.8
2023-03-03T09:36:10.067Z,1.8
2023-03-03T09:39:10.126Z,1.8
2023-03-03T09:42:10.138Z,1.6
2023-03-03T09:45:10.090Z,1.6
2023-03-03T09:48:10.027Z,1.8
2023-03-03T09:51:09.974Z,1.8
2023-03-03T09:54:10.032Z,1.9
2023-03-03T09:57:10.000Z,2.1
2023-03-03T10:00:10.026Z,2.2
2023-03-03T10:03:10.376Z,2.2
2023-03-03T10:06:09.961Z,2.2
2023-03-03T10:09:10.176Z,2.2
2023-03-03T10:12:10.060Z,2.1
2023-03-03T10:15:10.056Z,2.1
2023-03-03T10:18:10.149Z,2.1
2023-03-03T10:21:10.044Z,2.1
2023-03-03T10:24:10.128Z,2.1
2023-03-03T10:27:23.173Z,2.1
2023-03-03T10:30:10.131Z,2.2
2023-03-03T10:33:11.516Z,2.1
2023-03-03T10:36:17.877Z,2.1
2023-03-03T10:39:10.124Z,2.1
2023-03-03T10:42:10.053Z,2.2
2023-03-03T10:45:10.102Z,2.3
2023-03-03T10:48:10.209Z,2.4
2023-03-03T10:51:11.149Z,2.5
2023-03-03T10:54:10.061Z,2.6
2023-03-03T10:57:10.058Z,2.6
2023-03-03T11:00:10.077Z,2.6
2023-03-03T11:03:10.621Z,2.6
2023-03-03T11:06:10.315Z,2.6
2023-03-03T11:09:10.079Z,2.6
2023-03-03T11:12:10.055Z,2.7
2023-03-03T11:15:09.998Z,2.7
2023-03-03T11:18:10.248Z,2.8
2023-03-03T11:21:10.262Z,3.2
2023-03-03T11:24:09.993Z,3.1
2023-03-03T11:27:10.382Z,3.1
2023-03-03T11:30:10.074Z,3.2
2023-03-03T11:33:10.029Z,3.3
2023-03-03T11:36:10.231Z,3.3
2023-03-03T11:39:10.153Z,3.5
2023-03-03T11:42:10.063Z,3.6
2023-03-03T11:45:10.093Z,3.5
2023-03-03T11:48:10.049Z,3.5
2023-03-03T11:51:10.019Z,3.6
2023-03-03T11:54:10.471Z,3.7
2023-03-03T11:57:10.002Z,3.6
2023-03-03T12:00:10.051Z,3.5
2023-03-03T12:03:09.996Z,3.4
2023-03-03T12:06:13.183Z,3.5
2023-03-03T12:09:10.027Z,3.7
2023-03-03T12:12:10.051Z,3.5
2023-03-03T12:15:09.937Z,3.3
2023-03-03T12:18:10.034Z,3.4
2023-03-03T12:21:09.974Z,3.5
2023-03-03T12:24:13.327Z,3.6
2023-03-03T12:27:10.098Z,3.6
2023-03-03T12:30:13.859Z,3.7
2023-03-03T12:33:10.200Z,3.6
2023-03-03T12:36:10.188Z,3.7
2023-03-03T12:39:10.062Z,3.7
2023-03-03T12:42:12.061Z,3.7
2023-03-03T12:45:10.032Z,3.7
2023-03-03T12:48:10.117Z,3.8
2023-03-03T12:51:10.135Z,3.9
2023-03-03T12:54:10.055Z,3.9
2023-03-03T12:57:10.043Z,4.1
2023-03-03T13:00:10.115Z,4.2
2023-03-03T13:03:10.211Z,4.1
2023-03-03T13:06:10.004Z,4
2023-03-03T13:09:10.043Z,4.1
2023-03-03T13:12:40.852Z,3.9
2023-03-03T13:15:10.024Z,3.7
2023-03-03T13:18:10.032Z,3.7
2023-03-03T13:21:10.059Z,3.6
2023-03-03T13:24:10.077Z,3.7
2023-03-03T13:27:10.050Z,3.9
2023-03-03T13:30:10.243Z,3.9
2023-03-03T13:33:10.085Z,4.1
2023-03-03T13:36:10.283Z,4.1
2023-03-03T13:39:10.125Z,4.1
2023-03-03T13:42:10.043Z,4.1
2023-03-03T13:45:10.158Z,4.1
2023-03-03T13:48:10.180Z,4.1
2023-03-03T13:51:10.058Z,4
2023-03-03T13:54:10.074Z,4.1
2023-03-03T13:57:10.023Z,4.2
2023-03-03T14:00:10.088Z,4.2
2023-03-03T14:03:09.978Z,4.3
2023-03-03T14:06:09.985Z,4.2
2023-03-03T14:09:10.102Z,4.2
2023-03-03T14:12:10.109Z,4.1
2023-03-03T14:15:10.056Z,4.1
2023-03-03T14:18:10.012Z,3.9
2023-03-03T14:21:10.025Z,3.9
2023-03-03T14:24:10.037Z,3.7
2023-03-03T14:27:10.183Z,3.6
2023-03-03T14:30:10.121Z,3.6
2023-03-03T14:33:10.328Z,3.6
2023-03-03T14:36:10.395Z,3.6
2023-03-03T14:39:10.002Z,3.6
2023-03-03T14:42:10.065Z,3.8
2023-03-03T14:45:29.303Z,3.9
2023-03-03T14:48:10.083Z,4
2023-03-03T14:51:10.365Z,3.9
2023-03-03T14:54:11.089Z,4.1
2023-03-03T14:57:10.010Z,3.9
2023-03-03T15:00:10.142Z,3.9
2023-03-03T15:03:09.978Z,3.9
2023-03-03T15:06:10.008Z,3.8
2023-03-03T15:09:09.973Z,3.7
2023-03-03T15:12:09.967Z,3.7
2023-03-03T15:15:13.446Z,3.7
2023-03-03T15:18:10.133Z,3.7
2023-03-03T15:21:10.098Z,3.7
2023-03-03T15:24:10.230Z,3.5
2023-03-03T15:27:09.993Z,3.4
2023-03-03T15:30:10.268Z,3.3
2023-03-03T15:33:10.339Z,3.4
2023-03-03T15:36:10.123Z,3.3
2023-03-03T15:39:10.031Z,3.1
2023-03-03T15:42:10.009Z,3.1
2023-03-03T15:45:10.053Z,2.9
2023-03-03T15:48:10.021Z,2.9
2023-03-03T15:51:09.961Z,2.9
2023-03-03T15:54:09.960Z,2.7
2023-03-03T15:57:10.008Z,2.6
2023-03-03T16:00:10.079Z,2.6
2023-03-03T16:03:10.667Z,2.5
2023-03-03T16:06:10.143Z,2.4
2023-03-03T16:09:09.971Z,2.4
2023-03-03T16:12:10.048Z,2.4
2023-03-03T16:15:10.063Z,2.4
2023-03-03T16:18:10.038Z,2.4
2023-03-03T16:21:10.067Z,2.4
2023-03-03T16:24:10.023Z,2.4
2023-03-03T16:27:09.959Z,2.4
2023-03-03T16:30:10.215Z,2.2
2023-03-03T16:33:10.079Z,2.2
2023-03-03T16:36:10.462Z,2.2
2023-03-03T16:39:09.998Z,2.1
2023-03-03T16:42:09.997Z,2.1
2023-03-03T16:45:10.021Z,2
2023-03-03T16:48:10.027Z,2
2023-03-03T16:51:10.042Z,2
2023-03-03T16:54:10.041Z,2
2023-03-03T16:57:10.028Z,2
2023-03-03T17:00:10.178Z,1.9
2023-03-03T17:03:09.992Z,1.9
2023-03-03T17:06:09.893Z,1.9
2023-03-03T17:09:09.941Z,1.9
2023-03-03T17:12:09.957Z,1.8
2023-03-03T17:15:10.004Z,1.8
2023-03-03T17:18:09.908Z,1.7
2023-03-03T17:21:09.950Z,1.7
2023-03-03T17:24:09.948Z,1.6
2023-03-03T17:27:09.986Z,1.6
2023-03-03T17:30:10.082Z,1.5
2023-03-03T17:33:09.914Z,1.4
2023-03-03T17:36:09.998Z,1.3
2023-03-03T17:39:09.945Z,1.1
2023-03-03T17:42:09.956Z,1.1
2023-03-03T17:45:09.967Z,1
2023-03-03T17:48:10.049Z,0.8
2023-03-03T17:51:09.950Z,0.8
2023-03-03T17:54:09.968Z,0.6
2023-03-03T17:57:09.927Z,0.5
2023-03-03T18:00:10.108Z,0.4
2023-03-03T18:03:10.253Z,0.3
2023-03-03T18:06:09.940Z,0.1
2023-03-03T18:09:23.760Z,0.1
2023-03-03T18:12:09.912Z,1.9
2023-03-03T18:15:10.052Z,1.8
2023-03-03T18:18:09.984Z,1.7
2023-03-03T18:21:09.965Z,1.7
2023-03-03T18:24:09.893Z,1.6
2023-03-03T18:27:09.842Z,1.6
2023-03-03T18:30:10.010Z,1.5
2023-03-03T18:33:10.032Z,1.5
2023-03-03T18:36:10.122Z,1.4
2023-03-03T18:39:09.958Z,1.4
2023-03-03T18:42:10.015Z,1.4
2023-03-03T18:45:09.974Z,1.4
2023-03-03T18:48:10.067Z,1.4
2023-03-03T18:51:09.923Z,1.4
2023-03-03T18:54:09.951Z,1.5
2023-03-03T18:57:09.865Z,1.6
2023-03-03T19:00:10.053Z,1.7
2023-03-03T19:03:09.957Z,1.9
2023-03-03T19:06:10.010Z,0.1
2023-03-03T19:09:10.041Z,0.4
2023-03-03T19:12:09.935Z,0.6
2023-03-03T19:15:12.008Z,0.7
2023-03-03T19:18:09.982Z,0.8
2023-03-03T19:21:09.927Z,0.9
2023-03-03T19:24:10.064Z,1
2023-03-03T19:27:10.014Z,1.1
2023-03-03T19:30:09.996Z,1.1
2023-03-03T19:33:09.920Z,1.3
2023-03-03T19:36:09.986Z,1.3
2023-03-03T19:39:09.895Z,1.3
2023-03-03T19:42:09.970Z,1.3
2023-03-03T19:45:10.274Z,1.3
2023-03-03T19:48:09.964Z,1.3
2023-03-03T19:51:10.149Z,1.4
2023-03-03T19:54:09.982Z,1.4
2023-03-03T19:57:10.046Z,1.5
2023-03-03T20:00:09.954Z,1.5
2023-03-03T20:03:10.233Z,1.5
2023-03-03T20:06:10.028Z,1.6
2023-03-03T20:09:09.979Z,1.6
2023-03-03T20:12:09.930Z,1.6
2023-03-03T20:15:10.050Z,1.6
2023-03-03T20:18:09.948Z,1.7
2023-03-03T20:21:10.068Z,1.7
2023-03-03T20:24:09.970Z,1.8
2023-03-03T20:27:09.994Z,1.8
2023-03-03T20:30:10.021Z,1.8
2023-03-03T20:33:10.012Z,1.8
2023-03-03T20:36:09.978Z,1.8
2023-03-03T20:39:09.949Z,1.9
2023-03-03T20:42:09.911Z,1.9
2023-03-03T20:45:09.928Z,1.9
2023-03-03T20:48:12.034Z,1.9
2023-03-03T20:51:10.039Z,1.9
2023-03-03T20:54:10.012Z,1.9
2023-03-03T20:57:10.019Z,2
2023-03-03T21:00:09.878Z,1.9
2023-03-03T21:03:09.920Z,2
2023-03-03T21:06:09.934Z,2.1
2023-03-03T21:09:09.958Z,2.1
2023-03-03T21:12:10.016Z,2.1
2023-03-03T21:15:09.946Z,2.1
2023-03-03T21:18:09.940Z,2.2
2023-03-03T21:21:10.032Z,2.2
2023-03-03T21:24:09.917Z,2.2
2023-03-03T21:27:09.946Z,2.2
2023-03-03T21:30:09.979Z,2.3
2023-03-03T21:33:09.895Z,2.3
2023-03-03T21:36:09.972Z,2.3
2023-03-03T21:39:09.888Z,2.4
2023-03-03T21:42:10.011Z,2.4
2023-03-03T21:45:10.589Z,2.4
2023-03-03T21:48:11.676Z,2.4
2023-03-03T21:51:09.915Z,2.4
2023-03-03T21:54:09.995Z,2.4
2023-03-03T21:57:09.913Z,2.4
2023-03-03T22:00:10.080Z,2.4
2023-03-03T22:03:09.911Z,2.4
2023-03-03T22:06:09.949Z,2.4
2023-03-03T22:09:09.983Z,2.4
2023-03-03T22:12:09.952Z,2.4
2023-03-03T22:15:09.952Z,2.4
2023-03-03T22:18:09.944Z,2.4
2023-03-03T22:21:09.896Z,2.4
2023-03-03T22:24:09.941Z,2.4
2023-03-03T22:27:09.999Z,2.4
2023-03-03T22:30:09.943Z,2.4
2023-03-03T22:33:10.012Z,2.4
2023-03-03T22:36:09.949Z,2.4
2023-03-03T22:39:09.988Z,2.4
2023-03-03T22:42:09.980Z,2.4
2023-03-03T22:45:09.976Z,2.4
2023-03-03T22:48:09.942Z,2.5
2023-03-03T22:51:09.911Z,2.6
2023-03-03T22:54:09.976Z,2.6
2023-03-03T22:57:10.021Z,2.6
2023-03-03T23:00:10.717Z,2.6
2023-03-03T23:03:10.215Z,2.6
2023-03-03T23:06:10.214Z,2.5
2023-03-03T23:09:09.945Z,2.4
2023-03-03T23:12:09.982Z,2.3
2023-03-03T23:15:09.916Z,2.2
2023-03-03T23:18:09.985Z,2.2
2023-03-03T23:21:10.172Z,2.1
2023-03-03T23:24:10.024Z,2.2
2023-03-03T23:27:09.929Z,2.2
2023-03-03T23:30:09.983Z,2.2
2023-03-03T23:33:09.980Z,2.2
2023-03-03T23:36:10.147Z,2.2
2023-03-03T23:39:09.970Z,2.2
2023-03-03T23:42:10.080Z,2.1
2023-03-03T23:45:10.075Z,2.2
2023-03-03T23:48:09.979Z,2.2
2023-03-03T23:51:09.959Z,2.3
2023-03-03T23:54:09.933Z,2.5
2023-03-03T23:57:10.073Z,2.6
